sensor_id;sensor_type;location;lat;lon;timestamp;temperature;humidity
25914;DHT22;13718;50.922;5.346;2024-03-17T00:01:31;7.70;99.90
25914;DHT22;13718;50.922;5.346;2024-03-17T00:03:57;7.70;99.90
25914;DHT22;13718;50.922;5.346;2024-03-17T00:06:22;7.70;99.90
25914;DHT22;13718;50.922;5.346;2024-03-17T00:08:47;7.80;99.90
25914;DHT22;13718;50.922;5.346;2024-03-17T00:11:13;7.80;99.90
25914;DHT22;13718;50.922;5.346;2024-03-17T00:13:39;7.80;99.90
25914;DHT22;13718;50.922;5.346;2024-03-17T00:16:04;7.80;99.90
25914;DHT22;13718;50.922;5.346;2024-03-17T00:18:30;7.90;99.90
25914;DHT22;13718;50.922;5.346;2024-03-17T00:20:55;7.90;99.90
25914;DHT22;13718;50.922;5.346;2024-03-17T00:23:21;7.90;99.90
25914;DHT22;13718;50.922;5.346;2024-03-17T00:25:47;7.80;99.90
25914;DHT22;13718;50.922;5.346;2024-03-17T00:28:12;7.80;99.90
25914;DHT22;13718;50.922;5.346;2024-03-17T00:30:38;7.80;99.90
25914;DHT22;13718;50.922;5.346;2024-03-17T00:33:03;7.80;99.90
25914;DHT22;13718;50.922;5.346;2024-03-17T00:35:29;7.80;99.90
25914;DHT22;13718;50.922;5.346;2024-03-17T00:37:55;7.70;99.90
25914;DHT22;13718;50.922;5.346;2024-03-17T00:40:21;7.70;99.90
25914;DHT22;13718;50.922;5.346;2024-03-17T00:42:47;7.60;99.90
25914;DHT22;13718;50.922;5.346;2024-03-17T00:45:12;7.60;99.90
25914;DHT22;13718;50.922;5.346;2024-03-17T00:47:38;7.50;99.90
25914;DHT22;13718;50.922;5.346;2024-03-17T00:50:04;7.30;99.90
25914;DHT22;13718;50.922;5.346;2024-03-17T00:52:31;7.30;99.90
25914;DHT22;13718;50.922;5.346;2024-03-17T00:54:57;7.20;99.90
25914;DHT22;13718;50.922;5.346;2024-03-17T00:57:23;7.10;99.90
25914;DHT22;13718;50.922;5.346;2024-03-17T00:59:48;7.10;99.90
25914;DHT22;13718;50.922;5.346;2024-03-17T01:02:16;7.10;99.90
25914;DHT22;13718;50.922;5.346;2024-03-17T01:04:42;7.10;99.90
25914;DHT22;13718;50.922;5.346;2024-03-17T01:07:08;7.10;99.90
25914;DHT22;13718;50.922;5.346;2024-03-17T01:09:34;7.20;99.90
25914;DHT22;13718;50.922;5.346;2024-03-17T01:12:00;7.20;99.90
25914;DHT22;13718;50.922;5.346;2024-03-17T01:14:26;7.10;99.90
25914;DHT22;13718;50.922;5.346;2024-03-17T01:16:52;7.00;99.90
25914;DHT22;13718;50.922;5.346;2024-03-17T01:19:18;6.90;99.90
25914;DHT22;13718;50.922;5.346;2024-03-17T01:21:43;6.80;99.90
25914;DHT22;13718;50.922;5.346;2024-03-17T01:24:09;6.80;99.90
25914;DHT22;13718;50.922;5.346;2024-03-17T01:26:34;6.70;99.90
25914;DHT22;13718;50.922;5.346;2024-03-17T01:29:00;6.50;99.90
25914;DHT22;13718;50.922;5.346;2024-03-17T01:31:27;6.40;99.90
25914;DHT22;13718;50.922;5.346;2024-03-17T01:33:52;6.30;99.90
25914;DHT22;13718;50.922;5.346;2024-03-17T01:36:20;6.40;99.90
25914;DHT22;13718;50.922;5.346;2024-03-17T01:38:45;6.40;99.90
25914;DHT22;13718;50.922;5.346;2024-03-17T01:41:11;6.50;99.90
25914;DHT22;13718;50.922;5.346;2024-03-17T01:43:38;6.60;99.90
25914;DHT22;13718;50.922;5.346;2024-03-17T01:46:03;6.70;99.90
25914;DHT22;13718;50.922;5.346;2024-03-17T01:48:29;6.70;99.90
25914;DHT22;13718;50.922;5.346;2024-03-17T01:50:55;6.80;99.90
25914;DHT22;13718;50.922;5.346;2024-03-17T01:53:22;6.90;99.90
25914;DHT22;13718;50.922;5.346;2024-03-17T01:55:49;7.00;99.90
25914;DHT22;13718;50.922;5.346;2024-03-17T01:58:15;7.10;99.90
25914;DHT22;13718;50.922;5.346;2024-03-17T02:00:40;7.20;99.90
25914;DHT22;13718;50.922;5.346;2024-03-17T02:03:06;7.20;99.90
25914;DHT22;13718;50.922;5.346;2024-03-17T02:05:34;7.30;99.90
25914;DHT22;13718;50.922;5.346;2024-03-17T02:08:00;7.40;99.90
25914;DHT22;13718;50.922;5.346;2024-03-17T02:10:25;7.40;99.90
25914;DHT22;13718;50.922;5.346;2024-03-17T02:12:51;7.40;99.90
25914;DHT22;13718;50.922;5.346;2024-03-17T02:15:17;7.50;99.90
25914;DHT22;13718;50.922;5.346;2024-03-17T02:17:43;7.50;99.90
25914;DHT22;13718;50.922;5.346;2024-03-17T02:20:08;7.60;99.90
25914;DHT22;13718;50.922;5.346;2024-03-17T02:22:39;7.60;99.90
25914;DHT22;13718;50.922;5.346;2024-03-17T02:25:05;7.70;99.90
25914;DHT22;13718;50.922;5.346;2024-03-17T02:27:34;7.70;99.90
25914;DHT22;13718;50.922;5.346;2024-03-17T02:29:59;7.70;99.90
25914;DHT22;13718;50.922;5.346;2024-03-17T02:32:25;7.80;99.90
25914;DHT22;13718;50.922;5.346;2024-03-17T02:34:53;7.80;99.90
25914;DHT22;13718;50.922;5.346;2024-03-17T02:37:18;7.90;99.90
25914;DHT22;13718;50.922;5.346;2024-03-17T02:39:44;8.10;99.90
25914;DHT22;13718;50.922;5.346;2024-03-17T02:42:10;8.10;99.90
25914;DHT22;13718;50.922;5.346;2024-03-17T02:44:36;8.10;99.90
25914;DHT22;13718;50.922;5.346;2024-03-17T02:47:03;8.20;99.90
25914;DHT22;13718;50.922;5.346;2024-03-17T02:49:29;8.20;99.90
25914;DHT22;13718;50.922;5.346;2024-03-17T02:52:02;8.20;99.90
25914;DHT22;13718;50.922;5.346;2024-03-17T02:54:27;8.20;99.90
25914;DHT22;13718;50.922;5.346;2024-03-17T02:56:53;8.20;99.90
25914;DHT22;13718;50.922;5.346;2024-03-17T02:59:18;8.30;99.90
25914;DHT22;13718;50.922;5.346;2024-03-17T03:01:44;8.40;99.90
25914;DHT22;13718;50.922;5.346;2024-03-17T03:04:10;8.30;99.90
25914;DHT22;13718;50.922;5.346;2024-03-17T03:06:35;8.40;99.90
25914;DHT22;13718;50.922;5.346;2024-03-17T03:09:01;8.40;99.90
25914;DHT22;13718;50.922;5.346;2024-03-17T03:11:27;8.40;99.90
25914;DHT22;13718;50.922;5.346;2024-03-17T03:13:52;8.30;99.90
25914;DHT22;13718;50.922;5.346;2024-03-17T03:16:18;8.40;99.90
25914;DHT22;13718;50.922;5.346;2024-03-17T03:18:44;8.30;99.90
25914;DHT22;13718;50.922;5.346;2024-03-17T03:21:10;8.20;99.90
25914;DHT22;13718;50.922;5.346;2024-03-17T03:23:36;8.10;99.90
25914;DHT22;13718;50.922;5.346;2024-03-17T03:26:01;8.00;99.90
25914;DHT22;13718;50.922;5.346;2024-03-17T03:28:31;8.00;99.90
25914;DHT22;13718;50.922;5.346;2024-03-17T03:30:57;7.90;99.90
25914;DHT22;13718;50.922;5.346;2024-03-17T03:33:23;7.80;99.90
25914;DHT22;13718;50.922;5.346;2024-03-17T03:35:48;7.70;99.90
25914;DHT22;13718;50.922;5.346;2024-03-17T03:38:14;7.50;99.90
25914;DHT22;13718;50.922;5.346;2024-03-17T03:40:43;7.50;99.90
25914;DHT22;13718;50.922;5.346;2024-03-17T03:43:09;7.60;99.90
25914;DHT22;13718;50.922;5.346;2024-03-17T03:45:35;7.70;99.90
25914;DHT22;13718;50.922;5.346;2024-03-17T03:48:01;7.70;99.90
25914;DHT22;13718;50.922;5.346;2024-03-17T03:50:26;7.50;99.90
25914;DHT22;13718;50.922;5.346;2024-03-17T03:52:52;7.40;99.90
25914;DHT22;13718;50.922;5.346;2024-03-17T03:55:18;7.20;99.90
25914;DHT22;13718;50.922;5.346;2024-03-17T03:57:44;7.10;99.90
25914;DHT22;13718;50.922;5.346;2024-03-17T04:00:13;7.20;99.90
25914;DHT22;13718;50.922;5.346;2024-03-17T04:02:39;7.30;99.90
25914;DHT22;13718;50.922;5.346;2024-03-17T04:05:05;7.30;99.90
25914;DHT22;13718;50.922;5.346;2024-03-17T04:07:32;7.40;99.90
25914;DHT22;13718;50.922;5.346;2024-03-17T04:09:58;7.40;99.90
25914;DHT22;13718;50.922;5.346;2024-03-17T04:12:23;7.60;99.90
25914;DHT22;13718;50.922;5.346;2024-03-17T04:14:49;7.70;99.90
25914;DHT22;13718;50.922;5.346;2024-03-17T04:17:21;7.70;99.90
25914;DHT22;13718;50.922;5.346;2024-03-17T04:19:48;7.90;99.90
25914;DHT22;13718;50.922;5.346;2024-03-17T04:22:14;7.90;99.90
25914;DHT22;13718;50.922;5.346;2024-03-17T04:24:40;8.00;99.90
25914;DHT22;13718;50.922;5.346;2024-03-17T04:27:06;8.10;99.90
25914;DHT22;13718;50.922;5.346;2024-03-17T04:29:31;8.10;99.90
25914;DHT22;13718;50.922;5.346;2024-03-17T04:31:57;8.20;99.90
25914;DHT22;13718;50.922;5.346;2024-03-17T04:34:22;8.10;99.90
25914;DHT22;13718;50.922;5.346;2024-03-17T04:36:47;8.10;99.90
25914;DHT22;13718;50.922;5.346;2024-03-17T04:39:13;8.20;99.90
25914;DHT22;13718;50.922;5.346;2024-03-17T04:41:38;8.20;99.90
25914;DHT22;13718;50.922;5.346;2024-03-17T04:44:06;8.30;99.90
25914;DHT22;13718;50.922;5.346;2024-03-17T04:46:32;8.50;99.90
25914;DHT22;13718;50.922;5.346;2024-03-17T04:48:57;8.50;99.90
25914;DHT22;13718;50.922;5.346;2024-03-17T04:51:23;8.60;99.90
25914;DHT22;13718;50.922;5.346;2024-03-17T04:53:48;8.50;99.90
25914;DHT22;13718;50.922;5.346;2024-03-17T04:56:14;8.50;99.90
25914;DHT22;13718;50.922;5.346;2024-03-17T04:58:39;8.40;99.90
25914;DHT22;13718;50.922;5.346;2024-03-17T05:01:05;8.30;99.90
25914;DHT22;13718;50.922;5.346;2024-03-17T05:03:31;8.20;99.90
25914;DHT22;13718;50.922;5.346;2024-03-17T05:06:01;8.20;99.90
25914;DHT22;13718;50.922;5.346;2024-03-17T05:08:27;8.20;99.90
25914;DHT22;13718;50.922;5.346;2024-03-17T05:10:56;8.40;99.90
25914;DHT22;13718;50.922;5.346;2024-03-17T05:13:21;8.50;99.90
25914;DHT22;13718;50.922;5.346;2024-03-17T05:15:47;8.50;99.90
25914;DHT22;13718;50.922;5.346;2024-03-17T05:18:12;8.60;99.90
25914;DHT22;13718;50.922;5.346;2024-03-17T05:20:38;8.40;99.90
25914;DHT22;13718;50.922;5.346;2024-03-17T05:23:03;8.50;99.90
25914;DHT22;13718;50.922;5.346;2024-03-17T05:25:29;8.50;99.90
25914;DHT22;13718;50.922;5.346;2024-03-17T05:27:55;8.50;99.90
25914;DHT22;13718;50.922;5.346;2024-03-17T05:30:20;8.60;99.90
25914;DHT22;13718;50.922;5.346;2024-03-17T05:32:46;8.60;99.90
25914;DHT22;13718;50.922;5.346;2024-03-17T05:35:11;8.50;99.90
25914;DHT22;13718;50.922;5.346;2024-03-17T05:37:37;8.40;99.90
25914;DHT22;13718;50.922;5.346;2024-03-17T05:40:03;8.30;99.90
25914;DHT22;13718;50.922;5.346;2024-03-17T05:42:29;8.30;99.90
25914;DHT22;13718;50.922;5.346;2024-03-17T05:44:54;8.10;99.90
25914;DHT22;13718;50.922;5.346;2024-03-17T05:47:20;7.90;99.90
25914;DHT22;13718;50.922;5.346;2024-03-17T05:49:46;7.70;99.90
25914;DHT22;13718;50.922;5.346;2024-03-17T05:52:11;7.50;99.90
25914;DHT22;13718;50.922;5.346;2024-03-17T05:54:37;7.40;99.90
25914;DHT22;13718;50.922;5.346;2024-03-17T05:57:03;7.40;99.90
25914;DHT22;13718;50.922;5.346;2024-03-17T05:59:30;7.30;99.90
25914;DHT22;13718;50.922;5.346;2024-03-17T06:01:56;7.30;99.90
25914;DHT22;13718;50.922;5.346;2024-03-17T06:04:22;7.30;99.90
25914;DHT22;13718;50.922;5.346;2024-03-17T06:06:47;7.40;99.90
25914;DHT22;13718;50.922;5.346;2024-03-17T06:09:14;7.50;99.90
25914;DHT22;13718;50.922;5.346;2024-03-17T06:11:43;7.50;99.90
25914;DHT22;13718;50.922;5.346;2024-03-17T06:14:08;7.50;99.90
25914;DHT22;13718;50.922;5.346;2024-03-17T06:16:37;7.60;99.90
25914;DHT22;13718;50.922;5.346;2024-03-17T06:19:02;7.60;99.90
25914;DHT22;13718;50.922;5.346;2024-03-17T06:21:28;7.70;99.90
25914;DHT22;13718;50.922;5.346;2024-03-17T06:23:54;7.80;99.90
25914;DHT22;13718;50.922;5.346;2024-03-17T06:26:19;7.90;99.90
25914;DHT22;13718;50.922;5.346;2024-03-17T06:28:46;8.00;99.90
25914;DHT22;13718;50.922;5.346;2024-03-17T06:31:11;8.20;99.90
25914;DHT22;13718;50.922;5.346;2024-03-17T06:33:37;8.50;99.90
25914;DHT22;13718;50.922;5.346;2024-03-17T06:36:03;8.80;99.90
25914;DHT22;13718;50.922;5.346;2024-03-17T06:38:32;9.00;99.90
25914;DHT22;13718;50.922;5.346;2024-03-17T06:40:57;9.10;99.90
25914;DHT22;13718;50.922;5.346;2024-03-17T06:43:23;9.20;99.90
25914;DHT22;13718;50.922;5.346;2024-03-17T06:45:58;9.30;99.90
25914;DHT22;13718;50.922;5.346;2024-03-17T06:48:24;9.40;99.90
25914;DHT22;13718;50.922;5.346;2024-03-17T06:50:50;9.60;99.90
25914;DHT22;13718;50.922;5.346;2024-03-17T06:53:17;9.60;99.90
25914;DHT22;13718;50.922;5.346;2024-03-17T06:55:44;9.70;99.90
25914;DHT22;13718;50.922;5.346;2024-03-17T06:58:11;9.80;99.90
25914;DHT22;13718;50.922;5.346;2024-03-17T07:00:37;9.70;99.90
25914;DHT22;13718;50.922;5.346;2024-03-17T07:03:02;9.70;99.90
25914;DHT22;13718;50.922;5.346;2024-03-17T07:05:28;9.90;99.90
25914;DHT22;13718;50.922;5.346;2024-03-17T07:07:55;9.90;99.90
25914;DHT22;13718;50.922;5.346;2024-03-17T07:10:20;9.90;99.90
25914;DHT22;13718;50.922;5.346;2024-03-17T07:12:46;10.00;99.90
25914;DHT22;13718;50.922;5.346;2024-03-17T07:15:11;10.20;99.90
25914;DHT22;13718;50.922;5.346;2024-03-17T07:17:37;10.50;99.90
25914;DHT22;13718;50.922;5.346;2024-03-17T07:20:02;10.90;99.90
25914;DHT22;13718;50.922;5.346;2024-03-17T07:22:29;11.70;99.90
25914;DHT22;13718;50.922;5.346;2024-03-17T07:24:55;12.50;99.90
25914;DHT22;13718;50.922;5.346;2024-03-17T07:27:25;13.50;99.90
25914;DHT22;13718;50.922;5.346;2024-03-17T07:29:51;14.60;99.90
25914;DHT22;13718;50.922;5.346;2024-03-17T07:32:16;15.20;99.90
25914;DHT22;13718;50.922;5.346;2024-03-17T07:34:42;15.20;99.90
25914;DHT22;13718;50.922;5.346;2024-03-17T07:37:08;14.80;99.90
25914;DHT22;13718;50.922;5.346;2024-03-17T07:39:33;14.40;99.90
25914;DHT22;13718;50.922;5.346;2024-03-17T07:41:59;14.30;99.90
25914;DHT22;13718;50.922;5.346;2024-03-17T07:44:27;14.60;99.90
25914;DHT22;13718;50.922;5.346;2024-03-17T07:46:56;14.90;99.90
25914;DHT22;13718;50.922;5.346;2024-03-17T07:49:22;15.10;99.90
25914;DHT22;13718;50.922;5.346;2024-03-17T07:51:47;14.70;99.90
25914;DHT22;13718;50.922;5.346;2024-03-17T07:54:13;14.40;99.90
25914;DHT22;13718;50.922;5.346;2024-03-17T07:56:39;14.40;99.90
25914;DHT22;13718;50.922;5.346;2024-03-17T07:59:04;14.70;99.90
25914;DHT22;13718;50.922;5.346;2024-03-17T08:01:37;15.30;99.90
25914;DHT22;13718;50.922;5.346;2024-03-17T08:04:02;15.70;99.90
25914;DHT22;13718;50.922;5.346;2024-03-17T08:06:29;15.70;99.90
25914;DHT22;13718;50.922;5.346;2024-03-17T08:08:54;15.50;99.90
25914;DHT22;13718;50.922;5.346;2024-03-17T08:11:20;15.30;99.90
25914;DHT22;13718;50.922;5.346;2024-03-17T08:13:45;15.10;99.90
25914;DHT22;13718;50.922;5.346;2024-03-17T08:16:11;15.00;99.90
25914;DHT22;13718;50.922;5.346;2024-03-17T08:18:37;15.00;99.90
25914;DHT22;13718;50.922;5.346;2024-03-17T08:21:03;15.10;99.90
25914;DHT22;13718;50.922;5.346;2024-03-17T08:23:32;15.00;99.90
25914;DHT22;13718;50.922;5.346;2024-03-17T08:25:59;15.10;99.90
25914;DHT22;13718;50.922;5.346;2024-03-17T08:28:24;15.30;99.90
25914;DHT22;13718;50.922;5.346;2024-03-17T08:30:57;15.30;99.90
25914;DHT22;13718;50.922;5.346;2024-03-17T08:33:23;15.20;99.90
25914;DHT22;13718;50.922;5.346;2024-03-17T08:35:55;15.10;99.90
25914;DHT22;13718;50.922;5.346;2024-03-17T08:38:22;15.00;99.90
25914;DHT22;13718;50.922;5.346;2024-03-17T08:40:51;14.90;99.90
25914;DHT22;13718;50.922;5.346;2024-03-17T08:43:17;14.90;99.90
25914;DHT22;13718;50.922;5.346;2024-03-17T08:45:43;14.80;99.90
25914;DHT22;13718;50.922;5.346;2024-03-17T08:48:09;14.80;99.90
25914;DHT22;13718;50.922;5.346;2024-03-17T08:50:36;14.70;99.90
25914;DHT22;13718;50.922;5.346;2024-03-17T08:53:01;14.80;99.90
25914;DHT22;13718;50.922;5.346;2024-03-17T08:55:27;14.90;99.90
25914;DHT22;13718;50.922;5.346;2024-03-17T08:57:52;15.10;99.90
25914;DHT22;13718;50.922;5.346;2024-03-17T09:00:18;15.20;99.90
25914;DHT22;13718;50.922;5.346;2024-03-17T09:02:43;15.30;99.90
25914;DHT22;13718;50.922;5.346;2024-03-17T09:05:09;15.30;99.90
25914;DHT22;13718;50.922;5.346;2024-03-17T09:07:34;15.30;99.90
25914;DHT22;13718;50.922;5.346;2024-03-17T09:10:00;15.40;99.90
25914;DHT22;13718;50.922;5.346;2024-03-17T09:12:26;15.50;99.90
25914;DHT22;13718;50.922;5.346;2024-03-17T09:14:52;15.50;99.90
25914;DHT22;13718;50.922;5.346;2024-03-17T09:17:18;15.60;99.90
25914;DHT22;13718;50.922;5.346;2024-03-17T09:19:46;15.60;99.90
25914;DHT22;13718;50.922;5.346;2024-03-17T09:22:13;15.60;99.90
25914;DHT22;13718;50.922;5.346;2024-03-17T09:24:38;15.60;99.90
25914;DHT22;13718;50.922;5.346;2024-03-17T09:27:04;15.80;99.90
25914;DHT22;13718;50.922;5.346;2024-03-17T09:29:30;16.00;99.90
25914;DHT22;13718;50.922;5.346;2024-03-17T09:31:56;16.30;99.90
25914;DHT22;13718;50.922;5.346;2024-03-17T09:34:21;16.50;99.90
25914;DHT22;13718;50.922;5.346;2024-03-17T09:36:47;16.70;99.90
25914;DHT22;13718;50.922;5.346;2024-03-17T09:39:12;17.00;99.90
25914;DHT22;13718;50.922;5.346;2024-03-17T09:41:39;17.20;99.90
25914;DHT22;13718;50.922;5.346;2024-03-17T09:44:06;17.40;99.90
25914;DHT22;13718;50.922;5.346;2024-03-17T09:46:35;17.20;99.90
25914;DHT22;13718;50.922;5.346;2024-03-17T09:49:00;17.00;99.90
25914;DHT22;13718;50.922;5.346;2024-03-17T09:51:26;16.90;99.90
25914;DHT22;13718;50.922;5.346;2024-03-17T09:53:52;17.00;99.90
25914;DHT22;13718;50.922;5.346;2024-03-17T09:56:18;17.20;99.90
25914;DHT22;13718;50.922;5.346;2024-03-17T09:58:44;17.10;99.90
25914;DHT22;13718;50.922;5.346;2024-03-17T10:01:10;17.00;99.90
25914;DHT22;13718;50.922;5.346;2024-03-17T10:03:46;17.10;99.90
25914;DHT22;13718;50.922;5.346;2024-03-17T10:06:17;17.20;99.90
25914;DHT22;13718;50.922;5.346;2024-03-17T10:08:44;17.30;99.90
25914;DHT22;13718;50.922;5.346;2024-03-17T10:11:10;17.40;99.90
25914;DHT22;13718;50.922;5.346;2024-03-17T10:13:36;17.40;99.90
25914;DHT22;13718;50.922;5.346;2024-03-17T10:16:02;17.60;99.90
25914;DHT22;13718;50.922;5.346;2024-03-17T10:18:27;17.50;99.90
25914;DHT22;13718;50.922;5.346;2024-03-17T10:20:53;17.50;99.90
25914;DHT22;13718;50.922;5.346;2024-03-17T10:23:22;17.40;99.90
25914;DHT22;13718;50.922;5.346;2024-03-17T10:25:48;17.40;99.90
25914;DHT22;13718;50.922;5.346;2024-03-17T10:28:14;17.60;99.90
25914;DHT22;13718;50.922;5.346;2024-03-17T10:30:39;17.70;99.90
25914;DHT22;13718;50.922;5.346;2024-03-17T10:33:05;17.80;99.90
25914;DHT22;13718;50.922;5.346;2024-03-17T10:35:37;17.80;99.90
25914;DHT22;13718;50.922;5.346;2024-03-17T10:38:07;17.90;99.90
25914;DHT22;13718;50.922;5.346;2024-03-17T10:40:33;17.90;99.90
25914;DHT22;13718;50.922;5.346;2024-03-17T10:43:01;17.90;99.90
25914;DHT22;13718;50.922;5.346;2024-03-17T10:45:27;17.90;99.90
25914;DHT22;13718;50.922;5.346;2024-03-17T10:47:59;17.80;99.90
25914;DHT22;13718;50.922;5.346;2024-03-17T10:50:25;17.70;99.90
25914;DHT22;13718;50.922;5.346;2024-03-17T10:52:53;17.70;99.90
25914;DHT22;13718;50.922;5.346;2024-03-17T10:55:23;17.60;99.90
25914;DHT22;13718;50.922;5.346;2024-03-17T10:57:49;17.60;99.90
25914;DHT22;13718;50.922;5.346;2024-03-17T11:00:19;17.50;99.90
25914;DHT22;13718;50.922;5.346;2024-03-17T11:02:51;17.50;99.90
25914;DHT22;13718;50.922;5.346;2024-03-17T11:07:42;17.30;99.90
25914;DHT22;13718;50.922;5.346;2024-03-17T11:10:56;17.20;99.90
25914;DHT22;13718;50.922;5.346;2024-03-17T11:12:57;17.10;99.90
25914;DHT22;13718;50.922;5.346;2024-03-17T11:17:52;17.10;99.90
25914;DHT22;13718;50.922;5.346;2024-03-17T11:20:23;17.20;99.90
25914;DHT22;13718;50.922;5.346;2024-03-17T11:22:49;17.20;99.90
25914;DHT22;13718;50.922;5.346;2024-03-17T11:27:56;17.30;99.90
25914;DHT22;13718;50.922;5.346;2024-03-17T11:38:50;17.20;99.90
25914;DHT22;13718;50.922;5.346;2024-03-17T11:46:57;17.50;99.90
25914;DHT22;13718;50.922;5.346;2024-03-17T11:49:29;17.50;99.90
25914;DHT22;13718;50.922;5.346;2024-03-17T11:51:55;17.50;99.90
25914;DHT22;13718;50.922;5.346;2024-03-17T11:54:28;17.60;99.90
25914;DHT22;13718;50.922;5.346;2024-03-17T11:56:55;17.80;99.90
25914;DHT22;13718;50.922;5.346;2024-03-17T11:59:21;17.70;99.90
25914;DHT22;13718;50.922;5.346;2024-03-17T12:01:50;17.70;99.90
25914;DHT22;13718;50.922;5.346;2024-03-17T12:04:17;17.70;99.90
25914;DHT22;13718;50.922;5.346;2024-03-17T12:06:46;17.70;99.90
25914;DHT22;13718;50.922;5.346;2024-03-17T12:11:40;17.80;99.90
25914;DHT22;13718;50.922;5.346;2024-03-17T12:14:14;17.80;99.90
25914;DHT22;13718;50.922;5.346;2024-03-17T12:17:01;18.00;99.90
25914;DHT22;13718;50.922;5.346;2024-03-17T12:19:27;18.10;99.90
25914;DHT22;13718;50.922;5.346;2024-03-17T12:21:56;18.40;99.90
25914;DHT22;13718;50.922;5.346;2024-03-17T12:24:22;18.60;99.90
25914;DHT22;13718;50.922;5.346;2024-03-17T12:26:49;18.70;99.90
25914;DHT22;13718;50.922;5.346;2024-03-17T12:31:50;18.90;99.90
25914;DHT22;13718;50.922;5.346;2024-03-17T12:34:16;18.80;99.90
25914;DHT22;13718;50.922;5.346;2024-03-17T12:36:41;18.90;99.90
25914;DHT22;13718;50.922;5.346;2024-03-17T12:39:15;18.90;99.90
25914;DHT22;13718;50.922;5.346;2024-03-17T12:41:44;19.00;99.90
25914;DHT22;13718;50.922;5.346;2024-03-17T12:44:22;19.00;99.90
25914;DHT22;13718;50.922;5.346;2024-03-17T12:46:54;19.00;99.90
25914;DHT22;13718;50.922;5.346;2024-03-17T12:49:20;19.00;99.90
25914;DHT22;13718;50.922;5.346;2024-03-17T12:51:45;18.90;99.90
25914;DHT22;13718;50.922;5.346;2024-03-17T12:54:14;18.90;99.90
25914;DHT22;13718;50.922;5.346;2024-03-17T12:56:40;19.00;99.90
25914;DHT22;13718;50.922;5.346;2024-03-17T12:59:24;19.10;99.90
25914;DHT22;13718;50.922;5.346;2024-03-17T13:02:11;19.20;99.90
25914;DHT22;13718;50.922;5.346;2024-03-17T13:04:37;19.20;99.90
25914;DHT22;13718;50.922;5.346;2024-03-17T13:07:13;19.10;99.90
25914;DHT22;13718;50.922;5.346;2024-03-17T13:09:38;19.10;99.90
25914;DHT22;13718;50.922;5.346;2024-03-17T13:12:14;18.90;99.90
25914;DHT22;13718;50.922;5.346;2024-03-17T13:14:40;18.90;99.90
25914;DHT22;13718;50.922;5.346;2024-03-17T13:17:06;18.80;99.90
25914;DHT22;13718;50.922;5.346;2024-03-17T13:19:32;18.90;99.90
25914;DHT22;13718;50.922;5.346;2024-03-17T13:21:59;18.90;99.90
25914;DHT22;13718;50.922;5.346;2024-03-17T13:24:24;18.90;99.90
25914;DHT22;13718;50.922;5.346;2024-03-17T13:26:50;18.80;99.90
25914;DHT22;13718;50.922;5.346;2024-03-17T13:29:16;18.90;99.90
25914;DHT22;13718;50.922;5.346;2024-03-17T13:31:41;18.80;99.90
25914;DHT22;13718;50.922;5.346;2024-03-17T13:34:07;18.60;99.90
25914;DHT22;13718;50.922;5.346;2024-03-17T13:36:34;18.60;99.90
25914;DHT22;13718;50.922;5.346;2024-03-17T13:39:00;18.60;99.90
25914;DHT22;13718;50.922;5.346;2024-03-17T13:41:25;18.70;99.90
25914;DHT22;13718;50.922;5.346;2024-03-17T13:43:51;18.60;99.90
25914;DHT22;13718;50.922;5.346;2024-03-17T13:46:22;18.60;99.90
25914;DHT22;13718;50.922;5.346;2024-03-17T13:48:48;18.60;99.90
25914;DHT22;13718;50.922;5.346;2024-03-17T13:51:14;18.80;99.90
25914;DHT22;13718;50.922;5.346;2024-03-17T13:53:39;18.90;99.90
25914;DHT22;13718;50.922;5.346;2024-03-17T13:56:05;19.10;99.90
25914;DHT22;13718;50.922;5.346;2024-03-17T13:58:30;19.20;99.90
25914;DHT22;13718;50.922;5.346;2024-03-17T14:00:56;19.20;99.90
25914;DHT22;13718;50.922;5.346;2024-03-17T14:03:21;19.00;99.90
25914;DHT22;13718;50.922;5.346;2024-03-17T14:05:47;18.70;99.90
25914;DHT22;13718;50.922;5.346;2024-03-17T14:08:12;18.60;99.90
25914;DHT22;13718;50.922;5.346;2024-03-17T14:10:38;18.40;99.90
25914;DHT22;13718;50.922;5.346;2024-03-17T14:13:03;18.40;99.90
25914;DHT22;13718;50.922;5.346;2024-03-17T14:15:29;18.30;99.90
25914;DHT22;13718;50.922;5.346;2024-03-17T14:17:55;18.20;99.90
25914;DHT22;13718;50.922;5.346;2024-03-17T14:20:21;18.10;99.90
25914;DHT22;13718;50.922;5.346;2024-03-17T14:22:47;18.10;99.90
25914;DHT22;13718;50.922;5.346;2024-03-17T14:25:19;18.20;99.90
25914;DHT22;13718;50.922;5.346;2024-03-17T14:27:46;18.20;99.90
25914;DHT22;13718;50.922;5.346;2024-03-17T14:30:14;18.40;99.90
25914;DHT22;13718;50.922;5.346;2024-03-17T14:32:40;18.40;99.90
25914;DHT22;13718;50.922;5.346;2024-03-17T14:35:06;18.40;99.90
25914;DHT22;13718;50.922;5.346;2024-03-17T14:37:31;18.40;99.90
25914;DHT22;13718;50.922;5.346;2024-03-17T14:39:57;18.50;99.90
25914;DHT22;13718;50.922;5.346;2024-03-17T14:42:24;18.40;99.90
25914;DHT22;13718;50.922;5.346;2024-03-17T14:44:50;18.40;99.90
25914;DHT22;13718;50.922;5.346;2024-03-17T14:47:15;18.40;99.90
25914;DHT22;13718;50.922;5.346;2024-03-17T14:49:41;18.40;99.90
25914;DHT22;13718;50.922;5.346;2024-03-17T14:52:07;18.20;99.90
25914;DHT22;13718;50.922;5.346;2024-03-17T14:54:32;18.20;99.90
25914;DHT22;13718;50.922;5.346;2024-03-17T14:56:58;18.10;99.90
25914;DHT22;13718;50.922;5.346;2024-03-17T14:59:24;17.90;99.90
25914;DHT22;13718;50.922;5.346;2024-03-17T15:01:49;17.60;99.90
25914;DHT22;13718;50.922;5.346;2024-03-17T15:04:15;17.60;99.90
25914;DHT22;13718;50.922;5.346;2024-03-17T15:06:41;17.60;99.90
25914;DHT22;13718;50.922;5.346;2024-03-17T15:09:06;17.70;99.90
25914;DHT22;13718;50.922;5.346;2024-03-17T15:11:33;17.80;99.90
25914;DHT22;13718;50.922;5.346;2024-03-17T15:13:59;17.80;99.90
25914;DHT22;13718;50.922;5.346;2024-03-17T15:16:24;17.90;99.90
25914;DHT22;13718;50.922;5.346;2024-03-17T15:18:50;17.90;99.90
25914;DHT22;13718;50.922;5.346;2024-03-17T15:21:16;17.80;99.90
25914;DHT22;13718;50.922;5.346;2024-03-17T15:23:41;17.50;99.90
25914;DHT22;13718;50.922;5.346;2024-03-17T15:26:07;17.50;99.90
25914;DHT22;13718;50.922;5.346;2024-03-17T15:28:35;17.40;99.90
25914;DHT22;13718;50.922;5.346;2024-03-17T15:31:04;17.30;99.90
25914;DHT22;13718;50.922;5.346;2024-03-17T15:33:31;17.40;99.90
25914;DHT22;13718;50.922;5.346;2024-03-17T15:36:00;17.30;99.90
25914;DHT22;13718;50.922;5.346;2024-03-17T15:38:26;17.20;99.90
25914;DHT22;13718;50.922;5.346;2024-03-17T15:40:51;17.20;99.90
25914;DHT22;13718;50.922;5.346;2024-03-17T15:43:17;17.10;99.90
25914;DHT22;13718;50.922;5.346;2024-03-17T15:45:43;17.10;99.90
25914;DHT22;13718;50.922;5.346;2024-03-17T15:48:08;17.00;99.90
25914;DHT22;13718;50.922;5.346;2024-03-17T15:50:35;16.80;99.90
25914;DHT22;13718;50.922;5.346;2024-03-17T15:53:01;16.80;99.90
25914;DHT22;13718;50.922;5.346;2024-03-17T15:55:26;16.70;99.90
25914;DHT22;13718;50.922;5.346;2024-03-17T15:57:52;16.50;99.90
25914;DHT22;13718;50.922;5.346;2024-03-17T16:00:17;16.30;99.90